sensor_id;sensor_type;location;lat;lon;timestamp;P1;durP1;ratioP1;P2;durP2;ratioP2
12884;SDS011;6510;51.362;7.370;2023-02-18T00:00:18;23.70;;;17.50;;
12884;SDS011;6510;51.362;7.370;2023-02-18T00:02:45;23.30;;;17.83;;
12884;SDS011;6510;51.362;7.370;2023-02-18T00:05:11;21.00;;;16.77;;
12884;SDS011;6510;51.362;7.370;2023-02-18T00:07:39;22.30;;;17.53;;
12884;SDS011;6510;51.362;7.370;2023-02-18T00:10:06;22.47;;;18.90;;
12884;SDS011;6510;51.362;7.370;2023-02-18T00:12:34;25.03;;;18.17;;
12884;SDS011;6510;51.362;7.370;2023-02-18T00:14:59;22.07;;;17.00;;
12884;SDS011;6510;51.362;7.370;2023-02-18T00:17:25;24.17;;;18.40;;
12884;SDS011;6510;51.362;7.370;2023-02-18T00:19:52;23.47;;;18.33;;
12884;SDS011;6510;51.362;7.370;2023-02-18T00:22:18;22.70;;;17.90;;
12884;SDS011;6510;51.362;7.370;2023-02-18T00:24:43;22.87;;;17.70;;
12884;SDS011;6510;51.362;7.370;2023-02-18T00:27:09;24.20;;;17.97;;
12884;SDS011;6510;51.362;7.370;2023-02-18T00:29:34;22.73;;;17.77;;
12884;SDS011;6510;51.362;7.370;2023-02-18T00:32:00;23.77;;;17.20;;
12884;SDS011;6510;51.362;7.370;2023-02-18T00:34:26;23.63;;;17.87;;
12884;SDS011;6510;51.362;7.370;2023-02-18T00:36:51;24.40;;;18.60;;
12884;SDS011;6510;51.362;7.370;2023-02-18T00:39:17;25.40;;;18.33;;
12884;SDS011;6510;51.362;7.370;2023-02-18T00:41:43;25.17;;;18.63;;
12884;SDS011;6510;51.362;7.370;2023-02-18T00:44:09;25.83;;;18.50;;
12884;SDS011;6510;51.362;7.370;2023-02-18T00:46:35;26.50;;;18.80;;
12884;SDS011;6510;51.362;7.370;2023-02-18T00:49:02;25.93;;;17.67;;
12884;SDS011;6510;51.362;7.370;2023-02-18T00:51:29;27.73;;;19.20;;
12884;SDS011;6510;51.362;7.370;2023-02-18T00:53:55;25.47;;;18.13;;
12884;SDS011;6510;51.362;7.370;2023-02-18T00:56:21;28.13;;;18.80;;
12884;SDS011;6510;51.362;7.370;2023-02-18T00:58:48;27.47;;;19.27;;
12884;SDS011;6510;51.362;7.370;2023-02-18T01:01:14;26.17;;;19.10;;
12884;SDS011;6510;51.362;7.370;2023-02-18T01:03:40;28.70;;;19.77;;
12884;SDS011;6510;51.362;7.370;2023-02-18T01:06:07;28.03;;;19.30;;
12884;SDS011;6510;51.362;7.370;2023-02-18T01:08:33;29.17;;;20.03;;
12884;SDS011;6510;51.362;7.370;2023-02-18T01:11:00;28.73;;;19.53;;
12884;SDS011;6510;51.362;7.370;2023-02-18T01:13:26;33.10;;;20.33;;
12884;SDS011;6510;51.362;7.370;2023-02-18T01:15:52;27.77;;;19.17;;
12884;SDS011;6510;51.362;7.370;2023-02-18T01:18:18;30.57;;;20.20;;
12884;SDS011;6510;51.362;7.370;2023-02-18T01:20:45;28.70;;;18.67;;
12884;SDS011;6510;51.362;7.370;2023-02-18T01:23:12;30.00;;;18.90;;
12884;SDS011;6510;51.362;7.370;2023-02-18T01:25:38;29.93;;;18.67;;
12884;SDS011;6510;51.362;7.370;2023-02-18T01:28:05;29.83;;;19.60;;
12884;SDS011;6510;51.362;7.370;2023-02-18T01:30:31;30.50;;;19.60;;
12884;SDS011;6510;51.362;7.370;2023-02-18T01:32:57;33.73;;;20.57;;
12884;SDS011;6510;51.362;7.370;2023-02-18T01:35:23;31.00;;;19.77;;
12884;SDS011;6510;51.362;7.370;2023-02-18T01:37:49;35.13;;;20.47;;
12884;SDS011;6510;51.362;7.370;2023-02-18T01:40:16;30.40;;;18.90;;
12884;SDS011;6510;51.362;7.370;2023-02-18T01:42:50;33.80;;;20.83;;
12884;SDS011;6510;51.362;7.370;2023-02-18T01:48:15;33.27;;;20.57;;
12884;SDS011;6510;51.362;7.370;2023-02-18T01:51:00;34.73;;;21.50;;
12884;SDS011;6510;51.362;7.370;2023-02-18T01:53:32;34.00;;;20.50;;
12884;SDS011;6510;51.362;7.370;2023-02-18T01:56:04;30.67;;;21.30;;
12884;SDS011;6510;51.362;7.370;2023-02-18T01:58:34;35.77;;;21.70;;
12884;SDS011;6510;51.362;7.370;2023-02-18T02:01:00;32.97;;;20.97;;
12884;SDS011;6510;51.362;7.370;2023-02-18T02:03:26;34.43;;;20.63;;
12884;SDS011;6510;51.362;7.370;2023-02-18T02:05:54;35.07;;;21.57;;
12884;SDS011;6510;51.362;7.370;2023-02-18T02:08:19;31.47;;;20.93;;
12884;SDS011;6510;51.362;7.370;2023-02-18T02:11:10;32.63;;;20.93;;
12884;SDS011;6510;51.362;7.370;2023-02-18T02:16:31;32.27;;;19.17;;
12884;SDS011;6510;51.362;7.370;2023-02-18T02:19:14;30.70;;;19.73;;
12884;SDS011;6510;51.362;7.370;2023-02-18T02:27:25;28.13;;;17.87;;
12884;SDS011;6510;51.362;7.370;2023-02-18T02:39:12;26.43;;;16.57;;
12884;SDS011;6510;51.362;7.370;2023-02-18T02:44:20;26.83;;;16.43;;
12884;SDS011;6510;51.362;7.370;2023-02-18T02:46:55;24.23;;;16.77;;
12884;SDS011;6510;51.362;7.370;2023-02-18T02:49:30;23.33;;;14.70;;
12884;SDS011;6510;51.362;7.370;2023-02-18T02:52:30;22.00;;;14.13;;
12884;SDS011;6510;51.362;7.370;2023-02-18T02:54:57;20.90;;;14.97;;
12884;SDS011;6510;51.362;7.370;2023-02-18T02:59:50;23.97;;;14.77;;
12884;SDS011;6510;51.362;7.370;2023-02-18T03:05:01;20.40;;;14.13;;
12884;SDS011;6510;51.362;7.370;2023-02-18T03:13:14;18.93;;;12.80;;
12884;SDS011;6510;51.362;7.370;2023-02-18T03:16:03;21.50;;;12.83;;
12884;SDS011;6510;51.362;7.370;2023-02-18T03:18:35;22.33;;;13.80;;
12884;SDS011;6510;51.362;7.370;2023-02-18T03:23:43;19.80;;;12.83;;
12884;SDS011;6510;51.362;7.370;2023-02-18T03:26:20;19.57;;;12.80;;
12884;SDS011;6510;51.362;7.370;2023-02-18T03:28:47;18.70;;;12.80;;
12884;SDS011;6510;51.362;7.370;2023-02-18T03:31:16;21.60;;;13.27;;
12884;SDS011;6510;51.362;7.370;2023-02-18T03:33:47;21.60;;;13.10;;
12884;SDS011;6510;51.362;7.370;2023-02-18T03:36:16;23.53;;;13.77;;
12884;SDS011;6510;51.362;7.370;2023-02-18T03:38:57;22.23;;;13.83;;
12884;SDS011;6510;51.362;7.370;2023-02-18T03:41:25;21.53;;;12.70;;
12884;SDS011;6510;51.362;7.370;2023-02-18T03:43:51;22.20;;;12.97;;
12884;SDS011;6510;51.362;7.370;2023-02-18T03:46:20;23.40;;;12.60;;
12884;SDS011;6510;51.362;7.370;2023-02-18T03:48:46;19.23;;;11.93;;
12884;SDS011;6510;51.362;7.370;2023-02-18T03:51:11;19.60;;;11.63;;
12884;SDS011;6510;51.362;7.370;2023-02-18T03:53:37;20.33;;;11.63;;
12884;SDS011;6510;51.362;7.370;2023-02-18T03:56:03;20.80;;;11.47;;
12884;SDS011;6510;51.362;7.370;2023-02-18T03:58:29;23.50;;;12.50;;
12884;SDS011;6510;51.362;7.370;2023-02-18T04:00:54;21.80;;;13.00;;
12884;SDS011;6510;51.362;7.370;2023-02-18T04:03:20;26.10;;;12.90;;
12884;SDS011;6510;51.362;7.370;2023-02-18T04:05:45;23.87;;;11.57;;
12884;SDS011;6510;51.362;7.370;2023-02-18T04:08:12;18.47;;;9.80;;
12884;SDS011;6510;51.362;7.370;2023-02-18T04:10:37;18.40;;;9.10;;
12884;SDS011;6510;51.362;7.370;2023-02-18T04:13:03;15.67;;;9.23;;
12884;SDS011;6510;51.362;7.370;2023-02-18T04:15:29;16.30;;;8.80;;
12884;SDS011;6510;51.362;7.370;2023-02-18T04:17:55;14.97;;;8.37;;
12884;SDS011;6510;51.362;7.370;2023-02-18T04:20:21;16.80;;;7.87;;
12884;SDS011;6510;51.362;7.370;2023-02-18T04:22:47;16.57;;;8.40;;
12884;SDS011;6510;51.362;7.370;2023-02-18T04:25:12;14.10;;;8.40;;
12884;SDS011;6510;51.362;7.370;2023-02-18T04:27:38;16.10;;;9.03;;
12884;SDS011;6510;51.362;7.370;2023-02-18T04:30:04;12.97;;;7.20;;
12884;SDS011;6510;51.362;7.370;2023-02-18T04:32:31;13.73;;;7.27;;
12884;SDS011;6510;51.362;7.370;2023-02-18T04:34:57;12.47;;;7.00;;
12884;SDS011;6510;51.362;7.370;2023-02-18T04:37:23;9.37;;;6.13;;
12884;SDS011;6510;51.362;7.370;2023-02-18T04:39:48;9.57;;;5.77;;
12884;SDS011;6510;51.362;7.370;2023-02-18T04:42:14;9.83;;;5.47;;
12884;SDS011;6510;51.362;7.370;2023-02-18T04:44:39;8.70;;;5.10;;
12884;SDS011;6510;51.362;7.370;2023-02-18T04:47:05;8.70;;;5.10;;
12884;SDS011;6510;51.362;7.370;2023-02-18T04:49:31;6.73;;;4.27;;
12884;SDS011;6510;51.362;7.370;2023-02-18T04:51:57;6.87;;;4.17;;
12884;SDS011;6510;51.362;7.370;2023-02-18T04:54:23;5.53;;;3.80;;
12884;SDS011;6510;51.362;7.370;2023-02-18T04:56:48;5.93;;;3.90;;
12884;SDS011;6510;51.362;7.370;2023-02-18T04:59:14;4.87;;;3.60;;
12884;SDS011;6510;51.362;7.370;2023-02-18T05:01:41;3.23;;;2.77;;
12884;SDS011;6510;51.362;7.370;2023-02-18T05:04:06;6.13;;;3.40;;
12884;SDS011;6510;51.362;7.370;2023-02-18T05:06:32;3.30;;;2.80;;
12884;SDS011;6510;51.362;7.370;2023-02-18T05:08:58;3.03;;;2.57;;
12884;SDS011;6510;51.362;7.370;2023-02-18T05:11:23;4.70;;;2.77;;
12884;SDS011;6510;51.362;7.370;2023-02-18T05:13:49;2.57;;;2.27;;
12884;SDS011;6510;51.362;7.370;2023-02-18T05:16:15;3.30;;;2.33;;
12884;SDS011;6510;51.362;7.370;2023-02-18T05:18:40;2.60;;;2.10;;
12884;SDS011;6510;51.362;7.370;2023-02-18T05:21:06;2.20;;;1.90;;
12884;SDS011;6510;51.362;7.370;2023-02-18T05:23:32;2.93;;;1.80;;
12884;SDS011;6510;51.362;7.370;2023-02-18T05:25:58;2.20;;;2.00;;
12884;SDS011;6510;51.362;7.370;2023-02-18T05:28:24;2.27;;;2.07;;
12884;SDS011;6510;51.362;7.370;2023-02-18T05:30:49;2.47;;;1.87;;
12884;SDS011;6510;51.362;7.370;2023-02-18T05:33:15;2.10;;;1.90;;
12884;SDS011;6510;51.362;7.370;2023-02-18T05:35:41;2.03;;;1.90;;
12884;SDS011;6510;51.362;7.370;2023-02-18T05:38:06;1.80;;;1.70;;
12884;SDS011;6510;51.362;7.370;2023-02-18T05:40:33;1.77;;;1.60;;
12884;SDS011;6510;51.362;7.370;2023-02-18T05:42:59;2.10;;;1.60;;
12884;SDS011;6510;51.362;7.370;2023-02-18T05:45:25;1.77;;;1.67;;
12884;SDS011;6510;51.362;7.370;2023-02-18T05:47:50;1.80;;;1.70;;
12884;SDS011;6510;51.362;7.370;2023-02-18T05:50:16;2.20;;;1.90;;
12884;SDS011;6510;51.362;7.370;2023-02-18T05:52:42;2.30;;;1.80;;
12884;SDS011;6510;51.362;7.370;2023-02-18T05:55:07;1.83;;;1.47;;
12884;SDS011;6510;51.362;7.370;2023-02-18T05:57:33;2.40;;;1.90;;
12884;SDS011;6510;51.362;7.370;2023-02-18T05:59:58;3.30;;;1.80;;
12884;SDS011;6510;51.362;7.370;2023-02-18T06:02:24;1.80;;;1.70;;
12884;SDS011;6510;51.362;7.370;2023-02-18T06:04:50;1.60;;;1.47;;
12884;SDS011;6510;51.362;7.370;2023-02-18T06:07:16;2.20;;;1.87;;
12884;SDS011;6510;51.362;7.370;2023-02-18T06:09:42;2.60;;;2.10;;
12884;SDS011;6510;51.362;7.370;2023-02-18T06:12:07;2.10;;;1.90;;
12884;SDS011;6510;51.362;7.370;2023-02-18T06:14:33;2.43;;;2.20;;
12884;SDS011;6510;51.362;7.370;2023-02-18T06:16:59;2.63;;;2.17;;
12884;SDS011;6510;51.362;7.370;2023-02-18T06:19:24;3.37;;;2.80;;
12884;SDS011;6510;51.362;7.370;2023-02-18T06:21:50;3.13;;;2.50;;
12884;SDS011;6510;51.362;7.370;2023-02-18T06:24:15;3.00;;;2.70;;
12884;SDS011;6510;51.362;7.370;2023-02-18T06:26:41;3.03;;;2.70;;
12884;SDS011;6510;51.362;7.370;2023-02-18T06:29:06;2.87;;;2.57;;
12884;SDS011;6510;51.362;7.370;2023-02-18T06:31:32;2.80;;;2.57;;
12884;SDS011;6510;51.362;7.370;2023-02-18T06:33:58;3.43;;;2.83;;
12884;SDS011;6510;51.362;7.370;2023-02-18T06:36:23;3.33;;;2.70;;
12884;SDS011;6510;51.362;7.370;2023-02-18T06:38:49;4.27;;;3.20;;
12884;SDS011;6510;51.362;7.370;2023-02-18T06:41:15;5.07;;;3.60;;
12884;SDS011;6510;51.362;7.370;2023-02-18T06:43:41;5.07;;;3.40;;
12884;SDS011;6510;51.362;7.370;2023-02-18T06:46:07;5.03;;;3.97;;
12884;SDS011;6510;51.362;7.370;2023-02-18T06:48:32;4.27;;;3.27;;
12884;SDS011;6510;51.362;7.370;2023-02-18T06:50:58;4.30;;;3.70;;
12884;SDS011;6510;51.362;7.370;2023-02-18T06:53:24;4.67;;;3.23;;
12884;SDS011;6510;51.362;7.370;2023-02-18T06:55:50;3.50;;;3.00;;
12884;SDS011;6510;51.362;7.370;2023-02-18T06:58:15;4.57;;;3.23;;
12884;SDS011;6510;51.362;7.370;2023-02-18T07:00:41;3.80;;;3.20;;
12884;SDS011;6510;51.362;7.370;2023-02-18T07:03:07;4.07;;;3.10;;
12884;SDS011;6510;51.362;7.370;2023-02-18T07:05:35;3.27;;;2.90;;
12884;SDS011;6510;51.362;7.370;2023-02-18T07:08:00;3.63;;;3.10;;
12884;SDS011;6510;51.362;7.370;2023-02-18T07:10:26;5.60;;;4.57;;
12884;SDS011;6510;51.362;7.370;2023-02-18T07:12:51;7.60;;;5.20;;
12884;SDS011;6510;51.362;7.370;2023-02-18T07:15:17;7.37;;;5.30;;
12884;SDS011;6510;51.362;7.370;2023-02-18T07:17:48;7.97;;;5.57;;
12884;SDS011;6510;51.362;7.370;2023-02-18T07:20:16;8.73;;;6.20;;
12884;SDS011;6510;51.362;7.370;2023-02-18T07:22:42;7.70;;;6.67;;
12884;SDS011;6510;51.362;7.370;2023-02-18T07:25:08;10.70;;;6.90;;
12884;SDS011;6510;51.362;7.370;2023-02-18T07:27:34;8.93;;;7.23;;
12884;SDS011;6510;51.362;7.370;2023-02-18T07:29:59;7.57;;;5.77;;
12884;SDS011;6510;51.362;7.370;2023-02-18T07:32:25;7.20;;;5.70;;
12884;SDS011;6510;51.362;7.370;2023-02-18T07:34:51;7.43;;;6.00;;
12884;SDS011;6510;51.362;7.370;2023-02-18T07:37:17;7.50;;;5.63;;
12884;SDS011;6510;51.362;7.370;2023-02-18T07:42:13;5.33;;;4.40;;
12884;SDS011;6510;51.362;7.370;2023-02-18T07:44:39;5.07;;;4.17;;
12884;SDS011;6510;51.362;7.370;2023-02-18T07:47:05;5.37;;;4.00;;
12884;SDS011;6510;51.362;7.370;2023-02-18T07:49:33;6.03;;;4.20;;
12884;SDS011;6510;51.362;7.370;2023-02-18T07:51:59;4.30;;;3.87;;
12884;SDS011;6510;51.362;7.370;2023-02-18T07:54:25;4.77;;;4.30;;
12884;SDS011;6510;51.362;7.370;2023-02-18T07:56:51;4.93;;;4.40;;
12884;SDS011;6510;51.362;7.370;2023-02-18T07:59:17;5.63;;;4.60;;
12884;SDS011;6510;51.362;7.370;2023-02-18T08:01:42;6.17;;;4.00;;
12884;SDS011;6510;51.362;7.370;2023-02-18T08:04:08;4.73;;;4.00;;
12884;SDS011;6510;51.362;7.370;2023-02-18T08:06:38;5.23;;;3.90;;
12884;SDS011;6510;51.362;7.370;2023-02-18T08:09:05;3.80;;;3.50;;
12884;SDS011;6510;51.362;7.370;2023-02-18T08:11:31;4.03;;;3.37;;
12884;SDS011;6510;51.362;7.370;2023-02-18T08:13:58;4.70;;;3.87;;
12884;SDS011;6510;51.362;7.370;2023-02-18T08:16:23;3.60;;;3.20;;
12884;SDS011;6510;51.362;7.370;2023-02-18T08:18:49;3.43;;;3.13;;
12884;SDS011;6510;51.362;7.370;2023-02-18T08:21:16;3.83;;;3.23;;
12884;SDS011;6510;51.362;7.370;2023-02-18T08:23:43;3.17;;;2.87;;
12884;SDS011;6510;51.362;7.370;2023-02-18T08:26:09;3.00;;;2.70;;
12884;SDS011;6510;51.362;7.370;2023-02-18T08:28:35;3.30;;;2.90;;
12884;SDS011;6510;51.362;7.370;2023-02-18T08:31:01;3.43;;;2.90;;
12884;SDS011;6510;51.362;7.370;2023-02-18T08:33:27;3.10;;;2.73;;
12884;SDS011;6510;51.362;7.370;2023-02-18T08:35:53;3.00;;;2.70;;
12884;SDS011;6510;51.362;7.370;2023-02-18T08:38:20;3.93;;;2.67;;
12884;SDS011;6510;51.362;7.370;2023-02-18T08:40:46;2.87;;;2.60;;
12884;SDS011;6510;51.362;7.370;2023-02-18T08:43:13;2.97;;;2.10;;
12884;SDS011;6510;51.362;7.370;2023-02-18T08:45:39;2.00;;;1.90;;
12884;SDS011;6510;51.362;7.370;2023-02-18T08:48:08;3.43;;;2.50;;
12884;SDS011;6510;51.362;7.370;2023-02-18T08:50:35;5.00;;;2.83;;
12884;SDS011;6510;51.362;7.370;2023-02-18T08:53:00;4.23;;;2.37;;
12884;SDS011;6510;51.362;7.370;2023-02-18T08:55:30;2.80;;;2.60;;
12884;SDS011;6510;51.362;7.370;2023-02-18T08:57:57;2.33;;;2.13;;
12884;SDS011;6510;51.362;7.370;2023-02-18T09:00:24;3.37;;;2.47;;
12884;SDS011;6510;51.362;7.370;2023-02-18T09:02:50;6.70;;;2.80;;
12884;SDS011;6510;51.362;7.370;2023-02-18T09:05:15;2.83;;;2.33;;
12884;SDS011;6510;51.362;7.370;2023-02-18T09:07:41;4.67;;;2.83;;
12884;SDS011;6510;51.362;7.370;2023-02-18T09:10:08;3.23;;;2.80;;
12884;SDS011;6510;51.362;7.370;2023-02-18T09:12:34;3.53;;;2.87;;
12884;SDS011;6510;51.362;7.370;2023-02-18T09:15:00;7.10;;;3.23;;
12884;SDS011;6510;51.362;7.370;2023-02-18T09:17:26;5.03;;;2.60;;
12884;SDS011;6510;51.362;7.370;2023-02-18T09:19:51;3.43;;;2.70;;
12884;SDS011;6510;51.362;7.370;2023-02-18T09:22:17;6.40;;;3.27;;
12884;SDS011;6510;51.362;7.370;2023-02-18T09:24:43;6.13;;;3.00;;
12884;SDS011;6510;51.362;7.370;2023-02-18T09:27:09;5.97;;;2.90;;
12884;SDS011;6510;51.362;7.370;2023-02-18T09:29:39;4.70;;;2.57;;
12884;SDS011;6510;51.362;7.370;2023-02-18T09:32:05;4.10;;;2.60;;
12884;SDS011;6510;51.362;7.370;2023-02-18T09:34:32;3.67;;;2.60;;
12884;SDS011;6510;51.362;7.370;2023-02-18T09:36:58;8.27;;;5.37;;
12884;SDS011;6510;51.362;7.370;2023-02-18T09:39:24;5.93;;;5.30;;
12884;SDS011;6510;51.362;7.370;2023-02-18T09:41:50;7.80;;;3.20;;
12884;SDS011;6510;51.362;7.370;2023-02-18T09:44:19;8.93;;;4.47;;
12884;SDS011;6510;51.362;7.370;2023-02-18T09:47:10;7.00;;;3.33;;
12884;SDS011;6510;51.362;7.370;2023-02-18T09:49:47;8.30;;;3.80;;
12884;SDS011;6510;51.362;7.370;2023-02-18T09:52:23;8.83;;;3.37;;
12884;SDS011;6510;51.362;7.370;2023-02-18T09:54:53;8.80;;;4.10;;
12884;SDS011;6510;51.362;7.370;2023-02-18T09:59:59;13.03;;;3.70;;
12884;SDS011;6510;51.362;7.370;2023-02-18T10:02:28;9.53;;;4.67;;
12884;SDS011;6510;51.362;7.370;2023-02-18T10:04:55;8.67;;;3.90;;
12884;SDS011;6510;51.362;7.370;2023-02-18T10:07:26;8.83;;;4.00;;
12884;SDS011;6510;51.362;7.370;2023-02-18T10:09:55;8.43;;;3.63;;
12884;SDS011;6510;51.362;7.370;2023-02-18T10:12:25;8.70;;;4.83;;
12884;SDS011;6510;51.362;7.370;2023-02-18T10:14:52;9.87;;;4.93;;
12884;SDS011;6510;51.362;7.370;2023-02-18T10:17:21;10.87;;;4.27;;
12884;SDS011;6510;51.362;7.370;2023-02-18T10:19:48;10.03;;;4.57;;
12884;SDS011;6510;51.362;7.370;2023-02-18T10:22:16;11.43;;;5.10;;
12884;SDS011;6510;51.362;7.370;2023-02-18T10:27:22;8.83;;;5.87;;
12884;SDS011;6510;51.362;7.370;2023-02-18T10:29:49;9.87;;;5.80;;
12884;SDS011;6510;51.362;7.370;2023-02-18T10:32:20;11.10;;;5.47;;
12884;SDS011;6510;51.362;7.370;2023-02-18T10:40:51;10.90;;;5.03;;
12884;SDS011;6510;51.362;7.370;2023-02-18T10:51:51;12.30;;;5.07;;
12884;SDS011;6510;51.362;7.370;2023-02-18T10:54:23;12.07;;;5.47;;
12884;SDS011;6510;51.362;7.370;2023-02-18T10:56:51;9.27;;;6.00;;
12884;SDS011;6510;51.362;7.370;2023-02-18T10:59:18;8.80;;;6.03;;
12884;SDS011;6510;51.362;7.370;2023-02-18T11:01:44;8.87;;;5.50;;
12884;SDS011;6510;51.362;7.370;2023-02-18T11:04:24;9.97;;;4.70;;
12884;SDS011;6510;51.362;7.370;2023-02-18T11:07:01;10.57;;;5.23;;
12884;SDS011;6510;51.362;7.370;2023-02-18T11:10:14;11.80;;;5.20;;
12884;SDS011;6510;51.362;7.370;2023-02-18T11:12:28;10.93;;;4.93;;
12884;SDS011;6510;51.362;7.370;2023-02-18T11:17:34;10.33;;;4.73;;
12884;SDS011;6510;51.362;7.370;2023-02-18T11:20:19;9.87;;;4.20;;
12884;SDS011;6510;51.362;7.370;2023-02-18T11:22:45;8.63;;;3.97;;
12884;SDS011;6510;51.362;7.370;2023-02-18T11:25:22;6.73;;;4.00;;
12884;SDS011;6510;51.362;7.370;2023-02-18T11:32:55;5.77;;;3.60;;
12884;SDS011;6510;51.362;7.370;2023-02-18T11:35:26;8.23;;;3.73;;
12884;SDS011;6510;51.362;7.370;2023-02-18T11:37:55;4.33;;;2.93;;
12884;SDS011;6510;51.362;7.370;2023-02-18T11:40:25;4.83;;;2.70;;
12884;SDS011;6510;51.362;7.370;2023-02-18T11:43:04;3.87;;;2.70;;
12884;SDS011;6510;51.362;7.370;2023-02-18T11:45:34;6.20;;;2.57;;
12884;SDS011;6510;51.362;7.370;2023-02-18T11:48:00;5.10;;;3.10;;
12884;SDS011;6510;51.362;7.370;2023-02-18T11:50:38;5.60;;;3.03;;
12884;SDS011;6510;51.362;7.370;2023-02-18T11:55:53;4.30;;;2.90;;
12884;SDS011;6510;51.362;7.370;2023-02-18T11:58:20;3.30;;;2.70;;
12884;SDS011;6510;51.362;7.370;2023-02-18T12:00:47;4.10;;;2.83;;
12884;SDS011;6510;51.362;7.370;2023-02-18T12:06:00;2.73;;;2.40;;
12884;SDS011;6510;51.362;7.370;2023-02-18T12:08:31;3.87;;;2.50;;
12884;SDS011;6510;51.362;7.370;2023-02-18T12:11:09;2.83;;;2.40;;
12884;SDS011;6510;51.362;7.370;2023-02-18T12:13:47;2.47;;;2.27;;
12884;SDS011;6510;51.362;7.370;2023-02-18T12:19:12;2.70;;;2.20;;
12884;SDS011;6510;51.362;7.370;2023-02-18T12:21:57;3.00;;;2.17;;
12884;SDS011;6510;51.362;7.370;2023-02-18T12:27:47;2.43;;;2.23;;
12884;SDS011;6510;51.362;7.370;2023-02-18T12:30:35;3.70;;;2.30;;
12884;SDS011;6510;51.362;7.370;2023-02-18T12:44:43;2.73;;;1.90;;
12884;SDS011;6510;51.362;7.370;2023-02-18T12:50:12;3.50;;;2.30;;
12884;SDS011;6510;51.362;7.370;2023-02-18T12:58:16;2.60;;;2.40;;
12884;SDS011;6510;51.362;7.370;2023-02-18T13:03:49;2.80;;;2.50;;
12884;SDS011;6510;51.362;7.370;2023-02-18T13:09:11;3.63;;;3.00;;
12884;SDS011;6510;51.362;7.370;2023-02-18T13:12:25;4.10;;;3.47;;
12884;SDS011;6510;51.362;7.370;2023-02-18T13:15:20;4.93;;;4.43;;
12884;SDS011;6510;51.362;7.370;2023-02-18T13:18:15;5.27;;;4.70;;
12884;SDS011;6510;51.362;7.370;2023-02-18T13:20:55;6.13;;;4.67;;
12884;SDS011;6510;51.362;7.370;2023-02-18T13:23:28;5.97;;;5.43;;
12884;SDS011;6510;51.362;7.370;2023-02-18T13:25:58;5.67;;;4.77;;
12884;SDS011;6510;51.362;7.370;2023-02-18T13:34:00;4.60;;;3.70;;
12884;SDS011;6510;51.362;7.370;2023-02-18T13:41:27;3.57;;;3.13;;
12884;SDS011;6510;51.362;7.370;2023-02-18T13:43:53;3.00;;;2.70;;
12884;SDS011;6510;51.362;7.370;2023-02-18T13:46:19;3.43;;;3.03;;
12884;SDS011;6510;51.362;7.370;2023-02-18T13:48:51;3.30;;;3.10;;
12884;SDS011;6510;51.362;7.370;2023-02-18T13:56:49;3.50;;;3.20;;
12884;SDS011;6510;51.362;7.370;2023-02-18T14:09:47;4.40;;;4.00;;
12884;SDS011;6510;51.362;7.370;2023-02-18T14:12:23;4.60;;;4.20;;
12884;SDS011;6510;51.362;7.370;2023-02-18T14:17:41;5.13;;;4.63;;
12884;SDS011;6510;51.362;7.370;2023-02-18T14:22:47;6.83;;;5.77;;
12884;SDS011;6510;51.362;7.370;2023-02-18T14:25:16;8.17;;;5.90;;
12884;SDS011;6510;51.362;7.370;2023-02-18T14:27:51;6.87;;;5.70;;
12884;SDS011;6510;51.362;7.370;2023-02-18T14:32:48;6.83;;;5.70;;
12884;SDS011;6510;51.362;7.370;2023-02-18T14:35:19;6.73;;;6.03;;
12884;SDS011;6510;51.362;7.370;2023-02-18T14:46:00;10.60;;;7.77;;
12884;SDS011;6510;51.362;7.370;2023-02-18T14:51:22;10.70;;;8.67;;
12884;SDS011;6510;51.362;7.370;2023-02-18T14:53:49;10.07;;;8.50;;
12884;SDS011;6510;51.362;7.370;2023-02-18T14:56:17;13.43;;;9.47;;
12884;SDS011;6510;51.362;7.370;2023-02-18T14:58:49;9.97;;;8.70;;
12884;SDS011;6510;51.362;7.370;2023-02-18T15:01:21;11.30;;;9.40;;
12884;SDS011;6510;51.362;7.370;2023-02-18T15:03:54;11.50;;;10.07;;
12884;SDS011;6510;51.362;7.370;2023-02-18T15:08:54;14.37;;;10.57;;
12884;SDS011;6510;51.362;7.370;2023-02-18T15:11:24;14.07;;;10.03;;
12884;SDS011;6510;51.362;7.370;2023-02-18T15:14:10;11.00;;;8.23;;
12884;SDS011;6510;51.362;7.370;2023-02-18T15:16:42;9.70;;;7.77;;
12884;SDS011;6510;51.362;7.370;2023-02-18T15:19:16;10.40;;;7.87;;
12884;SDS011;6510;51.362;7.370;2023-02-18T15:21:47;10.93;;;7.57;;
12884;SDS011;6510;51.362;7.370;2023-02-18T15:26:46;11.40;;;7.47;;
12884;SDS011;6510;51.362;7.370;2023-02-18T15:29:34;8.93;;;7.37;;
12884;SDS011;6510;51.362;7.370;2023-02-18T15:32:05;10.00;;;7.53;;
12884;SDS011;6510;51.362;7.370;2023-02-18T15:34:42;9.53;;;6.70;;
12884;SDS011;6510;51.362;7.370;2023-02-18T15:37:10;12.37;;;10.10;;
12884;SDS011;6510;51.362;7.370;2023-02-18T15:39:41;8.17;;;6.20;;
12884;SDS011;6510;51.362;7.370;2023-02-18T15:42:09;11.27;;;8.60;;
12884;SDS011;6510;51.362;7.370;2023-02-18T15:44:55;9.47;;;8.53;;
12884;SDS011;6510;51.362;7.370;2023-02-18T15:47:22;9.50;;;7.77;;
12884;SDS011;6510;51.362;7.370;2023-02-18T15:49:56;15.17;;;10.60;;
12884;SDS011;6510;51.362;7.370;2023-02-18T15:52:29;10.43;;;9.43;;
12884;SDS011;6510;51.362;7.370;2023-02-18T15:55:01;10.80;;;9.00;;
12884;SDS011;6510;51.362;7.370;2023-02-18T15:57:35;15.73;;;11.10;;
12884;SDS011;6510;51.362;7.370;2023-02-18T16:00:09;11.00;;;9.83;;
12884;SDS011;6510;51.362;7.370;2023-02-18T16:02:48;14.50;;;12.23;;
12884;SDS011;6510;51.362;7.370;2023-02-18T16:05:26;17.00;;;10.07;;
12884;SDS011;6510;51.362;7.370;2023-02-18T16:08:00;13.10;;;9.40;;
12884;SDS011;6510;51.362;7.370;2023-02-18T16:13:00;12.07;;;8.87;;
12884;SDS011;6510;51.362;7.370;2023-02-18T16:15:31;12.70;;;9.23;;
12884;SDS011;6510;51.362;7.370;2023-02-18T16:18:03;13.77;;;9.87;;
12884;SDS011;6510;51.362;7.370;2023-02-18T16:23:01;15.33;;;10.47;;
12884;SDS011;6510;51.362;7.370;2023-02-18T16:25:39;16.47;;;11.23;;
12884;SDS011;6510;51.362;7.370;2023-02-18T16:28:30;16.47;;;11.30;;
12884;SDS011;6510;51.362;7.370;2023-02-18T16:30:57;18.67;;;10.77;;
12884;SDS011;6510;51.362;7.370;2023-02-18T16:33:23;17.07;;;11.83;;
12884;SDS011;6510;51.362;7.370;2023-02-18T16:35:48;18.13;;;13.20;;
12884;SDS011;6510;51.362;7.370;2023-02-18T16:38:18;17.10;;;12.70;;
12884;SDS011;6510;51.362;7.370;2023-02-18T16:40:46;16.30;;;11.67;;
12884;SDS011;6510;51.362;7.370;2023-02-18T16:43:25;15.47;;;12.60;;
12884;SDS011;6510;51.362;7.370;2023-02-18T16:45:58;16.27;;;11.53;;
12884;SDS011;6510;51.362;7.370;2023-02-18T16:48:32;19.57;;;12.60;;
12884;SDS011;6510;51.362;7.370;2023-02-18T16:51:02;18.90;;;11.97;;
12884;SDS011;6510;51.362;7.370;2023-02-18T16:53:45;17.50;;;13.00;;
12884;SDS011;6510;51.362;7.370;2023-02-18T16:56:15;18.70;;;13.43;;
12884;SDS011;6510;51.362;7.370;2023-02-18T16:58:43;18.80;;;12.87;;
12884;SDS011;6510;51.362;7.370;2023-02-18T17:01:14;17.90;;;12.63;;
12884;SDS011;6510;51.362;7.370;2023-02-18T17:03:46;21.20;;;13.17;;
12884;SDS011;6510;51.362;7.370;2023-02-18T17:06:11;19.10;;;12.73;;
12884;SDS011;6510;51.362;7.370;2023-02-18T17:08:38;19.97;;;13.33;;
12884;SDS011;6510;51.362;7.370;2023-02-18T17:13:59;18.20;;;12.93;;
12884;SDS011;6510;51.362;7.370;2023-02-18T17:16:29;19.90;;;15.20;;
12884;SDS011;6510;51.362;7.370;2023-02-18T17:18:55;23.87;;;17.40;;
12884;SDS011;6510;51.362;7.370;2023-02-18T17:21:21;24.50;;;17.07;;
12884;SDS011;6510;51.362;7.370;2023-02-18T17:23:51;24.80;;;15.90;;
12884;SDS011;6510;51.362;7.370;2023-02-18T17:28:54;22.17;;;14.33;;
12884;SDS011;6510;51.362;7.370;2023-02-18T17:31:31;23.33;;;15.30;;
12884;SDS011;6510;51.362;7.370;2023-02-18T17:34:01;21.37;;;14.53;;
12884;SDS011;6510;51.362;7.370;2023-02-18T17:36:29;19.80;;;14.13;;
12884;SDS011;6510;51.362;7.370;2023-02-18T17:38:55;21.73;;;13.83;;
12884;SDS011;6510;51.362;7.370;2023-02-18T17:41:24;20.77;;;13.50;;
12884;SDS011;6510;51.362;7.370;2023-02-18T17:43:50;23.43;;;13.83;;
12884;SDS011;6510;51.362;7.370;2023-02-18T17:46:19;20.30;;;14.17;;